• Join FlightAware (Why Join?)
  • Login
  • US Flag 
08:25PM EDT


 

Airport Tracker/Info


-or-


 

Live Flight TrackerFlight Track Log ✈ LXJ541 ✈ 21-Apr-2013 ✈ KJFK - KORF

Flight Track Log - Related Links

Times and Time Zones

All times are in EDT time to prevent confusion due to time zone crossing. See the LXJ541 flight status page for this flight to view local times or setup timezone preferences in your user account.

Time Position Orientation Groundspeed Altitude Reporting Facility
EDT Latitude Longitude Course Direction KTS MPH feet Rate Location/Type
06:27PM 40.6167 -73.8000 138° Southeast 180 207 2,100  Level New York TRACON
06:29PM 40.5194 -73.6867 138° Southeast 202 232 5,900 2,400 Climbing New York Center
06:30PM 40.4667 -73.6328 142° Southeast 249 287 9,700 3,720 Climbing New York Center
06:31PM 40.3914 -73.5561 142° Southeast 300 345 13,500 3,060 Climbing New York Center
06:32PM 40.3114 -73.4956 150° Southeast 342 394 15,900 1,260 Climbing New York Center
06:33PM 40.2011 -73.4939 179° South 377 434 16,000 1,680 Climbing New York Center
06:36PM 39.9789 -73.6419 207° Southwest 371 427 21,700 2,040 Climbing Washington Center
06:37PM 39.8842 -73.7069 208° Southwest 376 433 23,000 600 Climbing Washington Center
06:38PM 39.7850 -73.7717 207° Southwest 393 452 23,000  Level Washington Center
06:39PM 39.6983 -73.8278 182° South 398 458 23,000 900 Level Washington Center
06:40PM 39.6036 -73.8919 208° Southwest 398 458 24,900 1,500 Climbing Washington Center
06:41PM 39.5064 -73.9536 206° Southwest 393 452 26,000 480 Climbing Washington Center
06:42PM 39.4136 -74.0200 209° Southwest 387 445 25,900  Descending Washington Center
06:43PM 39.3292 -74.1078 219° Southwest 393 452 26,000  Climbing Washington Center
06:44PM 39.2469 -74.1981 220° Southwest 393 452 26,000  Level Washington Center
06:45PM 39.1667 -74.2853 220° Southwest 393 452 26,000  Level Washington Center
06:46PM 39.0861 -74.3722 220° Southwest 388 447 26,000  Level Washington Center
06:47PM 39.0078 -74.4564 220° Southwest 381 438 26,000  Level Washington Center
06:48PM 38.9253 -74.5456 220° Southwest 381 438 26,000  Level Washington Center
06:49PM 38.8469 -74.6322 221° Southwest 381 438 26,000  Level Washington Center
06:50PM 38.7661 -74.7183 220° Southwest 381 438 26,000  Level Washington Center
06:51PM 38.6833 -74.8044 219° Southwest 381 438 26,000  Level Washington Center
06:52PM 38.6028 -74.8931 221° Southwest 381 438 26,000 -540 Level Washington Center
06:53PM 38.5239 -74.9761 219° Southwest 381 438 25,000 -1,260 Descending Washington Center
06:54PM 38.4408 -75.0617 219° Southwest 381 438 23,500 -1,500 Descending Washington Center
06:55PM 38.3619 -75.1469 220° Southwest 381 438 22,000 -1,440 Descending Washington Center
06:56PM 38.2831 -75.2347 221° Southwest 375 432 20,700 -1,200 Descending Washington Center
06:57PM 38.2019 -75.3169 219° Southwest 380 437 19,600 -1,200 Descending Washington Center
06:58PM 38.1228 -75.3992 219° Southwest 375 432 18,400 -900 Descending Washington Center
06:59PM 38.0417 -75.4783 218° Southwest 375 432 17,800 -1,020 Descending Washington Center
07:00PM 37.9542 -75.5469 212° Southwest 375 432 16,400 -1,380 Descending Washington Center
07:01PM 37.8686 -75.6103 210° Southwest 370 426 15,100 -1,260 Descending Washington Center
07:02PM 37.7811 -75.6758 211° Southwest 370 426 13,900 -1,260 Descending Washington Center
07:03PM 37.7058 -75.7283 209° Southwest 358 412 12,900 -1,200 Descending Washington Center
07:03PM 37.6997 -75.7414 239° Southwest 365 420 12,700 -1,260 Descending Washington Center
07:04PM 37.6142 -75.8017 209° Southwest 348 400 11,500 -1,260 Descending Washington Center
07:05PM 37.5283 -75.8667 211° Southwest 353 406 10,400 -720 Descending Washington Center
07:06PM 37.4447 -75.9292 211° Southwest 347 399 10,100 -180 Descending Washington Center
07:07PM 37.3675 -75.9864 210° Southwest 349 402 10,100  Level Washington Center
07:08PM 37.2756 -76.0331 202° Southwest 353 406 10,100 -300 Level Washington Center
07:09PM 37.1939 -76.0717 201° Southwest 274 315 9,500 -1,140 Descending Washington Center
07:10PM 37.1311 -76.1181 211° Southwest 264 304 7,800 -1,800 Descending Washington Center
07:11PM 37.0706 -76.1803 219° Southwest 269 310 5,700 -1,440 Descending Washington Center
07:12PM 37.0200 -76.2317 219° Southwest 258 297 5,000 -720 Descending Washington Center
07:13PM 36.9719 -76.2756 216° Southwest 221 254 4,500 -1,080 Descending Washington Center
07:13PM 36.9217 -76.3142 212° Southwest 236 272 3,100 -780 Descending Washington Center
07:14PM 36.8672 -76.3475 206° Southwest 198 228 3,100 -420 Level Washington Center
07:16PM 36.8278 -76.3003 136° Southeast 165 190 2,300 -840 Descending Washington Center
07:17PM 36.8386 -76.2589 72° East 133 153 1,400 -840 Descending Washington Center
07:17PM 36.8636 -76.2358 36° Northeast 119 137 800 -720 Descending Washington Center